sensor_id;sensor_type;location;lat;lon;timestamp;pressure;altitude;pressure_sealevel;temperature;humidity
39301;BME280;25019;42.626;23.380;2023-04-05T00:01:32;93862.19;;;-1.99;100.00
39301;BME280;25019;42.626;23.380;2023-04-05T00:03:59;93922.69;;;-1.60;100.00
39301;BME280;25019;42.626;23.380;2023-04-05T00:06:27;93902.78;;;-1.68;100.00
39301;BME280;25019;42.626;23.380;2023-04-05T00:09:03;93775.38;;;-2.49;100.00
39301;BME280;25019;42.626;23.380;2023-04-05T00:11:32;93920.81;;;-1.66;100.00
39301;BME280;25019;42.626;23.380;2023-04-05T00:14:01;93837.72;;;-2.19;100.00
39301;BME280;25019;42.626;23.380;2023-04-05T00:16:28;93915.97;;;-1.69;100.00
39301;BME280;25019;42.626;23.380;2023-04-05T00:18:55;93909.41;;;-1.65;100.00
39301;BME280;25019;42.626;23.380;2023-04-05T00:21:21;93814.88;;;-2.24;100.00
39301;BME280;25019;42.626;23.380;2023-04-05T00:23:48;93895.34;;;-1.71;100.00
39301;BME280;25019;42.626;23.380;2023-04-05T00:26:16;93824.63;;;-2.11;100.00
39301;BME280;25019;42.626;23.380;2023-04-05T00:28:47;93889.03;;;-1.76;100.00
39301;BME280;25019;42.626;23.380;2023-04-05T00:31:13;93901.84;;;-1.60;100.00
39301;BME280;25019;42.626;23.380;2023-04-05T00:33:39;93881.16;;;-1.83;100.00
39301;BME280;25019;42.626;23.380;2023-04-05T00:38:34;93920.75;;;-1.51;100.00
39301;BME280;25019;42.626;23.380;2023-04-05T00:41:00;93920.06;;;-1.60;100.00
39301;BME280;25019;42.626;23.380;2023-04-05T00:43:26;93898.00;;;-1.64;100.00
39301;BME280;25019;42.626;23.380;2023-04-05T00:45:51;93908.56;;;-1.66;100.00
39301;BME280;25019;42.626;23.380;2023-04-05T00:48:17;93909.09;;;-1.55;100.00
39301;BME280;25019;42.626;23.380;2023-04-05T00:50:46;93895.38;;;-1.64;100.00
39301;BME280;25019;42.626;23.380;2023-04-05T00:53:14;93866.91;;;-1.87;100.00
39301;BME280;25019;42.626;23.380;2023-04-05T00:55:40;93934.09;;;-1.61;100.00
39301;BME280;25019;42.626;23.380;2023-04-05T00:58:06;93811.59;;;-2.33;100.00
39301;BME280;25019;42.626;23.380;2023-04-05T01:00:36;93918.13;;;-1.73;100.00
39301;BME280;25019;42.626;23.380;2023-04-05T01:03:03;93895.59;;;-1.81;100.00
39301;BME280;25019;42.626;23.380;2023-04-05T01:05:40;93916.66;;;-1.60;100.00
39301;BME280;25019;42.626;23.380;2023-04-05T01:10:59;93917.47;;;-1.60;100.00
39301;BME280;25019;42.626;23.380;2023-04-05T01:13:28;93935.34;;;-1.57;100.00
39301;BME280;25019;42.626;23.380;2023-04-05T01:15:54;93909.19;;;-1.63;100.00
39301;BME280;25019;42.626;23.380;2023-04-05T01:18:20;93924.56;;;-1.54;100.00
39301;BME280;25019;42.626;23.380;2023-04-05T01:26:48;93938.44;;;-1.46;100.00
39301;BME280;25019;42.626;23.380;2023-04-05T01:38:29;93836.53;;;-2.02;100.00
39301;BME280;25019;42.626;23.380;2023-04-05T01:40:56;93867.09;;;-1.89;100.00
39301;BME280;25019;42.626;23.380;2023-04-05T01:43:22;93865.22;;;-1.95;100.00
39301;BME280;25019;42.626;23.380;2023-04-05T01:45:47;93788.63;;;-2.44;100.00
39301;BME280;25019;42.626;23.380;2023-04-05T01:48:13;93927.69;;;-1.58;100.00
39301;BME280;25019;42.626;23.380;2023-04-05T01:50:39;93930.97;;;-1.49;100.00
39301;BME280;25019;42.626;23.380;2023-04-05T01:53:08;93919.44;;;-1.62;100.00
39301;BME280;25019;42.626;23.380;2023-04-05T01:55:34;93916.75;;;-1.54;100.00
39301;BME280;25019;42.626;23.380;2023-04-05T01:58:00;93872.47;;;-1.90;100.00
39301;BME280;25019;42.626;23.380;2023-04-05T02:00:25;93879.13;;;-1.88;100.00
39301;BME280;25019;42.626;23.380;2023-04-05T02:02:52;93844.50;;;-2.03;100.00
39301;BME280;25019;42.626;23.380;2023-04-05T02:05:18;93837.53;;;-2.03;100.00
39301;BME280;25019;42.626;23.380;2023-04-05T02:07:44;93923.44;;;-1.44;100.00
39301;BME280;25019;42.626;23.380;2023-04-05T02:10:09;93944.53;;;-1.39;100.00
39301;BME280;25019;42.626;23.380;2023-04-05T02:12:37;93877.00;;;-1.77;100.00
39301;BME280;25019;42.626;23.380;2023-04-05T02:15:03;93922.81;;;-1.46;100.00
39301;BME280;25019;42.626;23.380;2023-04-05T02:17:28;93922.63;;;-1.45;100.00
39301;BME280;25019;42.626;23.380;2023-04-05T02:19:59;93940.34;;;-1.33;100.00
39301;BME280;25019;42.626;23.380;2023-04-05T02:22:27;93916.19;;;-1.49;100.00
39301;BME280;25019;42.626;23.380;2023-04-05T02:24:55;93872.16;;;-1.81;100.00
39301;BME280;25019;42.626;23.380;2023-04-05T02:27:21;93938.56;;;-1.33;100.00
39301;BME280;25019;42.626;23.380;2023-04-05T02:29:47;93863.22;;;-1.78;100.00
39301;BME280;25019;42.626;23.380;2023-04-05T02:32:13;93893.09;;;-1.74;100.00
39301;BME280;25019;42.626;23.380;2023-04-05T02:34:39;93948.78;;;-1.31;100.00
39301;BME280;25019;42.626;23.380;2023-04-05T02:37:05;93867.78;;;-1.80;100.00
39301;BME280;25019;42.626;23.380;2023-04-05T02:39:31;93871.53;;;-1.68;100.00
39301;BME280;25019;42.626;23.380;2023-04-05T02:41:57;93902.59;;;-1.44;100.00
39301;BME280;25019;42.626;23.380;2023-04-05T02:44:24;93883.88;;;-1.55;100.00
39301;BME280;25019;42.626;23.380;2023-04-05T02:46:52;93843.84;;;-1.90;100.00
39301;BME280;25019;42.626;23.380;2023-04-05T02:49:20;93881.75;;;-1.66;100.00
39301;BME280;25019;42.626;23.380;2023-04-05T02:51:46;93937.06;;;-1.21;100.00
39301;BME280;25019;42.626;23.380;2023-04-05T02:54:11;93881.84;;;-1.53;100.00
39301;BME280;25019;42.626;23.380;2023-04-05T02:56:38;93852.78;;;-1.78;100.00
39301;BME280;25019;42.626;23.380;2023-04-05T02:59:10;93924.19;;;-1.29;100.00
39301;BME280;25019;42.626;23.380;2023-04-05T03:01:39;93808.53;;;-2.00;100.00
39301;BME280;25019;42.626;23.380;2023-04-05T03:04:14;93780.78;;;-2.29;100.00
39301;BME280;25019;42.626;23.380;2023-04-05T03:06:41;93865.50;;;-1.68;100.00
39301;BME280;25019;42.626;23.380;2023-04-05T03:09:11;93865.88;;;-1.71;100.00
39301;BME280;25019;42.626;23.380;2023-04-05T03:11:37;93801.81;;;-2.09;100.00
39301;BME280;25019;42.626;23.380;2023-04-05T03:14:03;93908.84;;;-1.39;100.00
39301;BME280;25019;42.626;23.380;2023-04-05T03:16:43;93935.59;;;-1.30;100.00
39301;BME280;25019;42.626;23.380;2023-04-05T03:19:20;93933.38;;;-1.33;100.00
39301;BME280;25019;42.626;23.380;2023-04-05T03:21:49;93829.78;;;-1.96;100.00
39301;BME280;25019;42.626;23.380;2023-04-05T03:24:40;93921.50;;;-1.36;100.00
39301;BME280;25019;42.626;23.380;2023-04-05T03:27:09;93927.53;;;-1.35;100.00
39301;BME280;25019;42.626;23.380;2023-04-05T03:29:52;93903.81;;;-1.40;100.00
39301;BME280;25019;42.626;23.380;2023-04-05T03:32:18;93862.53;;;-1.65;100.00
39301;BME280;25019;42.626;23.380;2023-04-05T03:34:50;93931.84;;;-1.21;100.00
39301;BME280;25019;42.626;23.380;2023-04-05T03:37:17;93929.81;;;-1.25;100.00
39301;BME280;25019;42.626;23.380;2023-04-05T03:39:48;93915.91;;;-1.32;100.00
39301;BME280;25019;42.626;23.380;2023-04-05T03:42:15;93872.38;;;-1.60;100.00
39301;BME280;25019;42.626;23.380;2023-04-05T03:44:43;93910.44;;;-1.38;100.00
39301;BME280;25019;42.626;23.380;2023-04-05T03:47:09;93937.00;;;-1.27;100.00
39301;BME280;25019;42.626;23.380;2023-04-05T03:49:37;93868.66;;;-1.73;100.00
39301;BME280;25019;42.626;23.380;2023-04-05T03:52:03;93942.22;;;-1.27;100.00
39301;BME280;25019;42.626;23.380;2023-04-05T03:54:29;93951.09;;;-1.22;100.00
39301;BME280;25019;42.626;23.380;2023-04-05T03:56:57;93902.00;;;-1.61;100.00
39301;BME280;25019;42.626;23.380;2023-04-05T03:59:23;93854.81;;;-1.95;100.00
39301;BME280;25019;42.626;23.380;2023-04-05T04:01:49;93898.22;;;-1.81;100.00
39301;BME280;25019;42.626;23.380;2023-04-05T04:04:16;93922.34;;;-1.72;100.00
39301;BME280;25019;42.626;23.380;2023-04-05T04:06:45;93869.53;;;-2.02;100.00
39301;BME280;25019;42.626;23.380;2023-04-05T04:09:13;93959.09;;;-1.45;100.00
39301;BME280;25019;42.626;23.380;2023-04-05T04:11:39;93953.81;;;-1.52;100.00
39301;BME280;25019;42.626;23.380;2023-04-05T04:14:06;93911.97;;;-1.87;100.00
39301;BME280;25019;42.626;23.380;2023-04-05T04:16:45;93955.72;;;-1.60;100.00
39301;BME280;25019;42.626;23.380;2023-04-05T04:19:29;93834.38;;;-2.50;100.00
39301;BME280;25019;42.626;23.380;2023-04-05T04:22:25;93965.34;;;-1.61;100.00
39301;BME280;25019;42.626;23.380;2023-04-05T04:25:35;93930.00;;;-1.85;100.00
39301;BME280;25019;42.626;23.380;2023-04-05T04:28:22;93874.16;;;-2.19;100.00
39301;BME280;25019;42.626;23.380;2023-04-05T04:31:11;93896.75;;;-2.05;100.00
39301;BME280;25019;42.626;23.380;2023-04-05T04:33:58;93896.19;;;-2.00;100.00
39301;BME280;25019;42.626;23.380;2023-04-05T04:36:45;93892.91;;;-2.09;100.00
39301;BME280;25019;42.626;23.380;2023-04-05T04:39:46;93913.75;;;-1.87;100.00
39301;BME280;25019;42.626;23.380;2023-04-05T04:42:31;93879.03;;;-1.94;100.00
39301;BME280;25019;42.626;23.380;2023-04-05T04:45:14;93816.16;;;-2.35;100.00
39301;BME280;25019;42.626;23.380;2023-04-05T04:47:46;93940.88;;;-1.45;100.00
39301;BME280;25019;42.626;23.380;2023-04-05T04:50:18;93964.13;;;-1.22;100.00
39301;BME280;25019;42.626;23.380;2023-04-05T04:52:46;93963.38;;;-1.15;100.00
39301;BME280;25019;42.626;23.380;2023-04-05T04:55:12;93890.81;;;-1.62;100.00
39301;BME280;25019;42.626;23.380;2023-04-05T04:57:41;93850.34;;;-1.79;100.00
39301;BME280;25019;42.626;23.380;2023-04-05T05:00:08;93916.44;;;-1.44;100.00
39301;BME280;25019;42.626;23.380;2023-04-05T05:02:39;93942.53;;;-1.15;100.00
39301;BME280;25019;42.626;23.380;2023-04-05T05:05:06;93977.59;;;-0.96;100.00
39301;BME280;25019;42.626;23.380;2023-04-05T05:07:33;93980.00;;;-0.95;100.00
39301;BME280;25019;42.626;23.380;2023-04-05T05:10:00;93916.53;;;-1.30;100.00
39301;BME280;25019;42.626;23.380;2023-04-05T05:12:26;93981.91;;;-0.82;100.00
39301;BME280;25019;42.626;23.380;2023-04-05T05:14:52;93923.06;;;-1.41;100.00
39301;BME280;25019;42.626;23.380;2023-04-05T05:17:20;93981.63;;;-0.94;100.00
39301;BME280;25019;42.626;23.380;2023-04-05T05:19:46;93912.06;;;-1.37;100.00
39301;BME280;25019;42.626;23.380;2023-04-05T05:22:11;93970.03;;;-0.91;100.00
39301;BME280;25019;42.626;23.380;2023-04-05T05:24:37;93910.53;;;-1.31;100.00
39301;BME280;25019;42.626;23.380;2023-04-05T05:27:08;93991.31;;;-0.87;100.00
39301;BME280;25019;42.626;23.380;2023-04-05T05:29:34;93928.63;;;-1.23;100.00
39301;BME280;25019;42.626;23.380;2023-04-05T05:32:00;93916.47;;;-1.37;100.00
39301;BME280;25019;42.626;23.380;2023-04-05T05:34:25;93991.94;;;-0.85;100.00
39301;BME280;25019;42.626;23.380;2023-04-05T05:36:55;93851.06;;;-1.71;100.00
39301;BME280;25019;42.626;23.380;2023-04-05T05:39:20;93978.41;;;-0.74;100.00
39301;BME280;25019;42.626;23.380;2023-04-05T05:41:48;93979.22;;;-0.67;100.00
39301;BME280;25019;42.626;23.380;2023-04-05T05:44:13;93964.41;;;-0.66;100.00
39301;BME280;25019;42.626;23.380;2023-04-05T05:46:39;93919.38;;;-1.03;100.00
39301;BME280;25019;42.626;23.380;2023-04-05T05:49:05;93989.53;;;-0.58;100.00
39301;BME280;25019;42.626;23.380;2023-04-05T05:51:30;93913.28;;;-0.61;100.00
39301;BME280;25019;42.626;23.380;2023-04-05T05:53:56;93926.84;;;-0.37;100.00
39301;BME280;25019;42.626;23.380;2023-04-05T05:56:22;93966.88;;;0.12;100.00
39301;BME280;25019;42.626;23.380;2023-04-05T05:58:48;93910.72;;;-0.12;100.00
39301;BME280;25019;42.626;23.380;2023-04-05T06:01:13;93973.63;;;0.42;100.00
39301;BME280;25019;42.626;23.380;2023-04-05T06:03:39;93907.34;;;-0.06;100.00
39301;BME280;25019;42.626;23.380;2023-04-05T06:06:05;93975.28;;;0.56;100.00
39301;BME280;25019;42.626;23.380;2023-04-05T06:08:35;93952.13;;;0.40;100.00
39301;BME280;25019;42.626;23.380;2023-04-05T06:11:01;93921.59;;;0.47;100.00
39301;BME280;25019;42.626;23.380;2023-04-05T06:13:27;93967.34;;;0.92;100.00
39301;BME280;25019;42.626;23.380;2023-04-05T06:15:52;93957.06;;;0.83;100.00
39301;BME280;25019;42.626;23.380;2023-04-05T06:18:18;93954.25;;;0.92;100.00
39301;BME280;25019;42.626;23.380;2023-04-05T06:20:45;93966.13;;;1.01;100.00
39301;BME280;25019;42.626;23.380;2023-04-05T06:23:10;93980.41;;;1.12;100.00
39301;BME280;25019;42.626;23.380;2023-04-05T06:25:36;93904.31;;;0.53;100.00
39301;BME280;25019;42.626;23.380;2023-04-05T06:28:03;93991.69;;;1.12;100.00
39301;BME280;25019;42.626;23.380;2023-04-05T06:30:29;93967.34;;;1.12;100.00
39301;BME280;25019;42.626;23.380;2023-04-05T06:32:55;93992.91;;;1.23;100.00
39301;BME280;25019;42.626;23.380;2023-04-05T06:35:22;94000.75;;;1.30;100.00
39301;BME280;25019;42.626;23.380;2023-04-05T06:37:48;94004.00;;;1.45;100.00
39301;BME280;25019;42.626;23.380;2023-04-05T06:40:14;93994.13;;;1.54;100.00
39301;BME280;25019;42.626;23.380;2023-04-05T06:42:40;93995.53;;;1.57;100.00
39301;BME280;25019;42.626;23.380;2023-04-05T06:45:10;94001.38;;;1.32;100.00
39301;BME280;25019;42.626;23.380;2023-04-05T06:47:39;93999.19;;;1.36;100.00
39301;BME280;25019;42.626;23.380;2023-04-05T06:50:07;93930.31;;;0.88;100.00
39301;BME280;25019;42.626;23.380;2023-04-05T06:52:33;93979.44;;;1.40;100.00
39301;BME280;25019;42.626;23.380;2023-04-05T06:54:59;94021.91;;;1.69;100.00
39301;BME280;25019;42.626;23.380;2023-04-05T06:57:25;93998.16;;;1.57;100.00
39301;BME280;25019;42.626;23.380;2023-04-05T06:59:52;94016.88;;;1.74;100.00
39301;BME280;25019;42.626;23.380;2023-04-05T07:02:18;93960.53;;;1.17;100.00
39301;BME280;25019;42.626;23.380;2023-04-05T07:04:44;94026.94;;;1.57;100.00
39301;BME280;25019;42.626;23.380;2023-04-05T07:07:10;94002.16;;;1.19;100.00
39301;BME280;25019;42.626;23.380;2023-04-05T07:09:38;93980.19;;;1.00;100.00
39301;BME280;25019;42.626;23.380;2023-04-05T07:12:05;94022.31;;;1.52;100.00
39301;BME280;25019;42.626;23.380;2023-04-05T07:14:32;94015.25;;;1.46;100.00
39301;BME280;25019;42.626;23.380;2023-04-05T07:16:58;94039.44;;;1.55;100.00
39301;BME280;25019;42.626;23.380;2023-04-05T07:19:24;93958.50;;;1.13;100.00
39301;BME280;25019;42.626;23.380;2023-04-05T07:21:51;94045.69;;;1.74;100.00
39301;BME280;25019;42.626;23.380;2023-04-05T07:24:17;94045.69;;;1.74;100.00
39301;BME280;25019;42.626;23.380;2023-04-05T07:26:43;93993.13;;;1.48;100.00
39301;BME280;25019;42.626;23.380;2023-04-05T07:29:09;94042.47;;;1.78;100.00
39301;BME280;25019;42.626;23.380;2023-04-05T07:31:35;93978.44;;;1.21;100.00
39301;BME280;25019;42.626;23.380;2023-04-05T07:34:01;94042.06;;;1.34;100.00
39301;BME280;25019;42.626;23.380;2023-04-05T07:36:27;94042.44;;;1.25;100.00
39301;BME280;25019;42.626;23.380;2023-04-05T07:38:56;94052.69;;;1.26;100.00
39301;BME280;25019;42.626;23.380;2023-04-05T07:41:24;94027.31;;;1.20;100.00
39301;BME280;25019;42.626;23.380;2023-04-05T07:43:50;94037.78;;;1.13;100.00
39301;BME280;25019;42.626;23.380;2023-04-05T07:46:16;94058.31;;;1.23;100.00
39301;BME280;25019;42.626;23.380;2023-04-05T07:48:42;94041.63;;;1.17;100.00
39301;BME280;25019;42.626;23.380;2023-04-05T07:51:08;94035.16;;;1.07;100.00
39301;BME280;25019;42.626;23.380;2023-04-05T07:53:35;94012.56;;;0.85;100.00
39301;BME280;25019;42.626;23.380;2023-04-05T07:56:09;94001.44;;;0.63;100.00
39301;BME280;25019;42.626;23.380;2023-04-05T07:58:38;94040.97;;;1.02;100.00
39301;BME280;25019;42.626;23.380;2023-04-05T08:01:07;94066.72;;;1.12;100.00
39301;BME280;25019;42.626;23.380;2023-04-05T08:03:34;94063.34;;;1.18;100.00
39301;BME280;25019;42.626;23.380;2023-04-05T08:08:35;94074.00;;;1.16;100.00
39301;BME280;25019;42.626;23.380;2023-04-05T08:11:04;94074.41;;;1.13;100.00
39301;BME280;25019;42.626;23.380;2023-04-05T08:13:30;94068.13;;;1.01;100.00
39301;BME280;25019;42.626;23.380;2023-04-05T08:15:59;94004.50;;;0.80;100.00
39301;BME280;25019;42.626;23.380;2023-04-05T08:18:26;94058.72;;;1.27;100.00
39301;BME280;25019;42.626;23.380;2023-04-05T08:20:56;94012.63;;;1.06;100.00
39301;BME280;25019;42.626;23.380;2023-04-05T08:23:22;94078.06;;;1.39;100.00
39301;BME280;25019;42.626;23.380;2023-04-05T08:25:48;94083.91;;;1.41;100.00
39301;BME280;25019;42.626;23.380;2023-04-05T08:28:14;94089.94;;;1.35;100.00
39301;BME280;25019;42.626;23.380;2023-04-05T08:30:39;94012.75;;;0.84;100.00
39301;BME280;25019;42.626;23.380;2023-04-05T08:33:05;94087.91;;;1.24;100.00
39301;BME280;25019;42.626;23.380;2023-04-05T08:35:31;94080.06;;;1.24;100.00
39301;BME280;25019;42.626;23.380;2023-04-05T08:37:57;94025.47;;;0.94;100.00
39301;BME280;25019;42.626;23.380;2023-04-05T08:40:34;94083.47;;;1.17;100.00
39301;BME280;25019;42.626;23.380;2023-04-05T08:46:07;94087.97;;;1.51;100.00
39301;BME280;25019;42.626;23.380;2023-04-05T08:48:34;94084.13;;;1.46;100.00
39301;BME280;25019;42.626;23.380;2023-04-05T08:51:02;94082.91;;;1.49;100.00
39301;BME280;25019;42.626;23.380;2023-04-05T08:53:28;94078.69;;;1.41;100.00
39301;BME280;25019;42.626;23.380;2023-04-05T08:55:55;94064.16;;;1.32;100.00
39301;BME280;25019;42.626;23.380;2023-04-05T08:58:23;94120.34;;;1.43;100.00
39301;BME280;25019;42.626;23.380;2023-04-05T09:00:50;94118.94;;;1.40;100.00
39301;BME280;25019;42.626;23.380;2023-04-05T09:03:20;94086.50;;;1.28;100.00
39301;BME280;25019;42.626;23.380;2023-04-05T09:05:49;94084.94;;;1.54;100.00
39301;BME280;25019;42.626;23.380;2023-04-05T09:08:16;94038.81;;;1.32;100.00
39301;BME280;25019;42.626;23.380;2023-04-05T09:10:42;94115.16;;;1.70;100.00
39301;BME280;25019;42.626;23.380;2023-04-05T09:13:08;93947.94;;;0.59;100.00
39301;BME280;25019;42.626;23.380;2023-04-05T09:15:36;94047.84;;;1.23;100.00
39301;BME280;25019;42.626;23.380;2023-04-05T09:18:03;94112.75;;;1.68;100.00
39301;BME280;25019;42.626;23.380;2023-04-05T09:20:29;94046.28;;;1.36;100.00
39301;BME280;25019;42.626;23.380;2023-04-05T09:22:56;94044.28;;;1.44;100.00
39301;BME280;25019;42.626;23.380;2023-04-05T09:27:57;94100.47;;;2.22;100.00
39301;BME280;25019;42.626;23.380;2023-04-05T09:30:25;94106.72;;;2.08;100.00
39301;BME280;25019;42.626;23.380;2023-04-05T09:32:53;94098.47;;;1.84;100.00
39301;BME280;25019;42.626;23.380;2023-04-05T09:35:30;94121.00;;;2.25;100.00
39301;BME280;25019;42.626;23.380;2023-04-05T09:37:58;94121.41;;;2.29;100.00
39301;BME280;25019;42.626;23.380;2023-04-05T09:40:45;94098.84;;;2.28;100.00
39301;BME280;25019;42.626;23.380;2023-04-05T09:43:40;94072.00;;;2.39;100.00
39301;BME280;25019;42.626;23.380;2023-04-05T09:46:06;94132.28;;;2.53;100.00
39301;BME280;25019;42.626;23.380;2023-04-05T09:48:48;94065.59;;;2.22;100.00
39301;BME280;25019;42.626;23.380;2023-04-05T09:51:14;94114.59;;;3.00;100.00
39301;BME280;25019;42.626;23.380;2023-04-05T09:54:03;94094.41;;;3.01;98.07
39301;BME280;25019;42.626;23.380;2023-04-05T09:56:31;94097.22;;;2.99;98.65
39301;BME280;25019;42.626;23.380;2023-04-05T09:58:59;94122.97;;;3.23;97.20
39301;BME280;25019;42.626;23.380;2023-04-05T10:01:27;94127.31;;;2.97;96.61
39301;BME280;25019;42.626;23.380;2023-04-05T10:03:53;94128.13;;;2.91;97.60
39301;BME280;25019;42.626;23.380;2023-04-05T10:06:19;94065.25;;;2.70;95.05
39301;BME280;25019;42.626;23.380;2023-04-05T10:08:46;94031.91;;;2.32;95.31
39301;BME280;25019;42.626;23.380;2023-04-05T10:11:13;94107.31;;;3.03;92.62
39301;BME280;25019;42.626;23.380;2023-04-05T10:13:41;94064.28;;;2.51;92.05
39301;BME280;25019;42.626;23.380;2023-04-05T10:16:10;94090.88;;;2.68;89.49
39301;BME280;25019;42.626;23.380;2023-04-05T10:18:46;94138.69;;;2.64;92.12
39301;BME280;25019;42.626;23.380;2023-04-05T10:21:14;94099.81;;;2.40;93.86
39301;BME280;25019;42.626;23.380;2023-04-05T10:23:45;94082.69;;;2.38;93.29
39301;BME280;25019;42.626;23.380;2023-04-05T10:26:23;94136.31;;;2.62;92.42
39301;BME280;25019;42.626;23.380;2023-04-05T10:29:00;94059.56;;;1.81;93.23
39301;BME280;25019;42.626;23.380;2023-04-05T10:31:39;94119.81;;;2.15;93.16
39301;BME280;25019;42.626;23.380;2023-04-05T10:34:42;94073.28;;;1.83;92.95
39301;BME280;25019;42.626;23.380;2023-04-05T10:37:24;94090.59;;;1.84;91.37
39301;BME280;25019;42.626;23.380;2023-04-05T10:39:54;94069.63;;;1.71;92.25
39301;BME280;25019;42.626;23.380;2023-04-05T10:44:52;94117.00;;;2.16;90.28
39301;BME280;25019;42.626;23.380;2023-04-05T10:47:21;94075.28;;;2.01;90.51
39301;BME280;25019;42.626;23.380;2023-04-05T10:49:52;93998.97;;;1.64;89.31
39301;BME280;25019;42.626;23.380;2023-04-05T10:52:19;94126.59;;;2.63;89.95
39301;BME280;25019;42.626;23.380;2023-04-05T10:54:48;94119.59;;;3.09;85.97
39301;BME280;25019;42.626;23.380;2023-04-05T10:57:14;94100.09;;;2.91;83.10
39301;BME280;25019;42.626;23.380;2023-04-05T10:59:44;94132.59;;;3.36;83.49
39301;BME280;25019;42.626;23.380;2023-04-05T11:02:11;94053.91;;;2.90;82.70
39301;BME280;25019;42.626;23.380;2023-04-05T11:04:39;94131.81;;;3.28;81.57
39301;BME280;25019;42.626;23.380;2023-04-05T11:07:17;94133.41;;;3.36;81.76
39301;BME280;25019;42.626;23.380;2023-04-05T11:10:02;94130.44;;;3.65;80.60
39301;BME280;25019;42.626;23.380;2023-04-05T11:15:33;94120.53;;;3.67;77.40
39301;BME280;25019;42.626;23.380;2023-04-05T11:20:49;94080.81;;;3.18;78.37
39301;BME280;25019;42.626;23.380;2023-04-05T11:23:22;94067.50;;;3.12;78.21
39301;BME280;25019;42.626;23.380;2023-04-05T11:25:56;94057.81;;;3.13;79.00
39301;BME280;25019;42.626;23.380;2023-04-05T11:30:55;94123.19;;;3.14;80.23
39301;BME280;25019;42.626;23.380;2023-04-05T11:34:08;94078.81;;;2.61;80.78
39301;BME280;25019;42.626;23.380;2023-04-05T11:44:22;94138.16;;;3.07;80.67
39301;BME280;25019;42.626;23.380;2023-04-05T11:46:52;94109.84;;;3.23;80.43
39301;BME280;25019;42.626;23.380;2023-04-05T11:49:20;94138.97;;;3.53;78.62
39301;BME280;25019;42.626;23.380;2023-04-05T11:51:49;94132.78;;;3.41;79.51
39301;BME280;25019;42.626;23.380;2023-04-05T11:54:31;94101.56;;;3.26;78.78
39301;BME280;25019;42.626;23.380;2023-04-05T11:56:58;94069.38;;;3.37;77.92
39301;BME280;25019;42.626;23.380;2023-04-05T11:59:28;94075.19;;;3.14;77.91
39301;BME280;25019;42.626;23.380;2023-04-05T12:02:00;94091.56;;;3.03;77.30
39301;BME280;25019;42.626;23.380;2023-04-05T12:04:27;94053.78;;;3.10;77.39
39301;BME280;25019;42.626;23.380;2023-04-05T12:07:14;94152.31;;;3.52;78.41
39301;BME280;25019;42.626;23.380;2023-04-05T12:10:00;94149.31;;;3.48;77.91
39301;BME280;25019;42.626;23.380;2023-04-05T12:12:42;94124.81;;;3.54;77.88
39301;BME280;25019;42.626;23.380;2023-04-05T12:15:13;94140.81;;;3.53;77.43
39301;BME280;25019;42.626;23.380;2023-04-05T12:17:47;94153.94;;;3.00;80.31
39301;BME280;25019;42.626;23.380;2023-04-05T12:20:20;94149.69;;;3.06;80.82
39301;BME280;25019;42.626;23.380;2023-04-05T12:22:48;94140.34;;;3.24;80.79
39301;BME280;25019;42.626;23.380;2023-04-05T12:25:15;94126.06;;;3.13;80.49
39301;BME280;25019;42.626;23.380;2023-04-05T12:27:41;94144.44;;;2.99;82.10
39301;BME280;25019;42.626;23.380;2023-04-05T12:30:09;94133.03;;;2.74;84.44
39301;BME280;25019;42.626;23.380;2023-04-05T12:32:46;94138.03;;;2.89;84.39
39301;BME280;25019;42.626;23.380;2023-04-05T12:35:14;94062.66;;;2.64;84.49
39301;BME280;25019;42.626;23.380;2023-04-05T12:37:40;94096.44;;;2.99;83.22
39301;BME280;25019;42.626;23.380;2023-04-05T12:40:06;94125.00;;;3.21;83.90
39301;BME280;25019;42.626;23.380;2023-04-05T12:42:33;94137.38;;;3.07;83.62
39301;BME280;25019;42.626;23.380;2023-04-05T12:45:09;94143.09;;;2.83;85.76
39301;BME280;25019;42.626;23.380;2023-04-05T12:47:35;94135.28;;;2.57;86.83
39301;BME280;25019;42.626;23.380;2023-04-05T12:50:13;94139.13;;;2.40;89.86
39301;BME280;25019;42.626;23.380;2023-04-05T12:52:59;94135.28;;;2.57;89.10
39301;BME280;25019;42.626;23.380;2023-04-05T12:55:26;94140.13;;;2.60;89.31
39301;BME280;25019;42.626;23.380;2023-04-05T12:57:53;94072.56;;;2.55;89.05
39301;BME280;25019;42.626;23.380;2023-04-05T13:00:21;94127.25;;;3.10;86.71
39301;BME280;25019;42.626;23.380;2023-04-05T13:02:50;94105.72;;;2.95;85.18
39301;BME280;25019;42.626;23.380;2023-04-05T13:05:20;94126.06;;;3.52;84.72
39301;BME280;25019;42.626;23.380;2023-04-05T13:07:49;94071.53;;;3.15;82.57
39301;BME280;25019;42.626;23.380;2023-04-05T13:10:23;94145.53;;;3.76;82.66
39301;BME280;25019;42.626;23.380;2023-04-05T13:12:49;94140.28;;;4.01;82.41
39301;BME280;25019;42.626;23.380;2023-04-05T13:15:17;94145.34;;;3.32;79.90
39301;BME280;25019;42.626;23.380;2023-04-05T13:17:44;94041.09;;;2.62;81.84
39301;BME280;25019;42.626;23.380;2023-04-05T13:20:10;94089.16;;;2.94;80.38
39301;BME280;25019;42.626;23.380;2023-04-05T13:22:37;93994.66;;;2.10;80.11
39301;BME280;25019;42.626;23.380;2023-04-05T13:25:03;94138.19;;;3.00;81.12
39301;BME280;25019;42.626;23.380;2023-04-05T13:27:29;94108.69;;;2.53;81.77
39301;BME280;25019;42.626;23.380;2023-04-05T13:29:55;94078.47;;;2.30;82.59
39301;BME280;25019;42.626;23.380;2023-04-05T13:32:21;94103.25;;;2.48;83.92
39301;BME280;25019;42.626;23.380;2023-04-05T13:34:47;94060.94;;;2.24;81.80
39301;BME280;25019;42.626;23.380;2023-04-05T13:37:13;94135.69;;;2.60;81.87
39301;BME280;25019;42.626;23.380;2023-04-05T13:39:44;94036.63;;;1.63;84.23
39301;BME280;25019;42.626;23.380;2023-04-05T13:42:12;94132.28;;;2.46;nan
39301;BME280;25019;42.626;23.380;2023-04-05T13:44:39;94063.56;;;2.24;82.75
39301;BME280;25019;42.626;23.380;2023-04-05T13:47:04;94124.97;;;2.75;82.19